createdAt,value
2022-07-25T00:01:49.996Z,17.21
2022-07-25T00:04:17.634Z,17.19
2022-07-25T00:06:46.012Z,17.26
2022-07-25T00:09:13.329Z,17.30
2022-07-25T00:11:40.466Z,17.36
2022-07-25T00:14:07.857Z,17.38
2022-07-25T00:16:35.088Z,17.37
2022-07-25T00:19:02.393Z,17.39
2022-07-25T00:21:29.524Z,17.45
2022-07-25T00:23:56.519Z,17.43
2022-07-25T00:26:23.698Z,17.46
2022-07-25T00:28:50.810Z,17.41
2022-07-25T00:31:17.703Z,17.45
2022-07-25T00:33:44.627Z,17.38
2022-07-25T00:36:11.683Z,17.36
2022-07-25T00:38:38.598Z,17.34
2022-07-25T00:41:05.711Z,17.32
2022-07-25T00:43:32.765Z,17.33
2022-07-25T00:46:00.590Z,17.27
2022-07-25T00:48:29.025Z,17.24
2022-07-25T00:50:57.138Z,17.18
2022-07-25T00:53:24.741Z,17.17
2022-07-25T00:55:52.802Z,17.17
2022-07-25T00:58:20.047Z,17.21
2022-07-25T01:00:48.396Z,17.22
2022-07-25T01:03:16.436Z,17.21
2022-07-25T01:05:43.392Z,17.21
2022-07-25T01:08:10.994Z,17.15
2022-07-25T01:10:38.163Z,17.20
2022-07-25T01:13:05.647Z,17.10
2022-07-25T01:15:32.916Z,17.09
2022-07-25T01:17:59.869Z,17.08
2022-07-25T01:20:29.655Z,17.11
2022-07-25T01:22:57.662Z,17.14
2022-07-25T01:25:25.566Z,17.06
2022-07-25T01:27:55.780Z,17.01
2022-07-25T01:30:25.138Z,17.06
2022-07-25T01:32:53.045Z,17.04
2022-07-25T01:35:20.133Z,17.04
2022-07-25T01:37:47.141Z,17.06
2022-07-25T01:40:14.904Z,17.08
2022-07-25T01:42:43.136Z,17.07
2022-07-25T01:45:11.572Z,17.09
2022-07-25T01:47:39.370Z,17.11
2022-07-25T01:50:07.360Z,17.12
2022-07-25T01:52:34.217Z,17.10
2022-07-25T01:55:01.068Z,17.11
2022-07-25T01:57:31.076Z,17.10
2022-07-25T01:59:59.548Z,17.13
2022-07-25T02:02:27.368Z,17.13
2022-07-25T02:04:54.536Z,17.16
2022-07-25T02:07:21.489Z,17.14
2022-07-25T02:09:52.120Z,17.11
2022-07-25T02:12:21.760Z,17.13
2022-07-25T02:14:48.612Z,17.14
2022-07-25T02:17:15.827Z,17.13
2022-07-25T02:19:42.912Z,17.09
2022-07-25T02:22:09.749Z,17.09
2022-07-25T02:24:37.396Z,17.13
2022-07-25T02:27:05.561Z,17.09
2022-07-25T02:29:33.509Z,17.04
2022-07-25T02:32:00.385Z,17.04
2022-07-25T02:34:27.603Z,16.99
2022-07-25T02:36:54.490Z,16.91
2022-07-25T02:39:21.573Z,16.85
2022-07-25T02:41:48.761Z,16.85
2022-07-25T02:44:15.563Z,16.85
2022-07-25T02:46:42.368Z,16.82
2022-07-25T02:49:10.153Z,16.81
2022-07-25T02:51:37.048Z,16.82
2022-07-25T02:54:04.008Z,16.80
2022-07-25T02:56:31.868Z,16.78
2022-07-25T02:58:59.332Z,16.79
2022-07-25T03:01:26.259Z,16.79
2022-07-25T03:03:53.246Z,16.75
2022-07-25T03:06:20.122Z,16.72
2022-07-25T03:08:46.964Z,16.75
2022-07-25T03:11:14.416Z,16.75
2022-07-25T03:13:41.497Z,16.73
2022-07-25T03:16:09.956Z,16.71
2022-07-25T03:18:37.307Z,16.73
2022-07-25T03:21:04.549Z,16.74
2022-07-25T03:23:32.455Z,16.71
2022-07-25T03:25:59.490Z,16.74
2022-07-25T03:28:26.360Z,16.71
2022-07-25T03:30:53.747Z,16.64
2022-07-25T03:33:20.695Z,16.66
2022-07-25T03:35:47.901Z,16.67
2022-07-25T03:38:14.737Z,16.59
2022-07-25T03:40:41.617Z,16.57
2022-07-25T03:43:09.061Z,16.56
2022-07-25T03:45:35.982Z,16.54
2022-07-25T03:48:03.093Z,16.55
2022-07-25T03:50:30.121Z,16.54
2022-07-25T03:52:56.977Z,16.52
2022-07-25T03:55:24.117Z,16.51
2022-07-25T03:57:51.124Z,16.46
2022-07-25T04:00:18.561Z,16.44
2022-07-25T04:02:45.588Z,16.50
2022-07-25T04:05:12.576Z,16.49
2022-07-25T04:07:39.904Z,16.50
2022-07-25T04:10:07.857Z,16.49
2022-07-25T04:12:35.041Z,16.46
2022-07-25T04:15:01.938Z,16.47
2022-07-25T04:17:28.776Z,16.42
2022-07-25T04:19:56.107Z,16.43
2022-07-25T04:22:23.590Z,16.42
2022-07-25T04:24:50.522Z,16.45
2022-07-25T04:27:17.535Z,16.42
2022-07-25T04:29:44.394Z,16.40
2022-07-25T04:32:11.340Z,16.39
2022-07-25T04:34:38.366Z,16.30
2022-07-25T04:37:05.306Z,16.18
2022-07-25T04:39:32.270Z,16.19
2022-07-25T04:41:59.167Z,16.14
2022-07-25T04:44:26.210Z,16.06
2022-07-25T04:46:53.419Z,16.04
2022-07-25T04:49:20.311Z,15.99
2022-07-25T04:51:47.227Z,15.95
2022-07-25T04:54:14.155Z,15.94
2022-07-25T04:56:40.997Z,15.99
2022-07-25T04:59:08.162Z,16.07
2022-07-25T05:01:35.966Z,16.07
2022-07-25T05:04:03.163Z,16.09
2022-07-25T05:06:30.170Z,16.11
2022-07-25T05:08:57.016Z,16.10
2022-07-25T05:11:24.015Z,16.15
2022-07-25T05:13:50.940Z,16.15
2022-07-25T05:16:17.833Z,16.18
2022-07-25T05:18:44.673Z,16.11
2022-07-25T05:21:12.692Z,16.21
2022-07-25T05:23:40.287Z,16.26
2022-07-25T05:26:07.160Z,16.30
2022-07-25T05:28:34.179Z,16.38
2022-07-25T05:31:01.477Z,16.44
2022-07-25T05:33:28.489Z,16.61
2022-07-25T05:35:55.450Z,16.84
2022-07-25T05:38:22.337Z,17.31
2022-07-25T05:40:52.473Z,17.88
2022-07-25T05:43:19.865Z,18.16
2022-07-25T05:45:47.843Z,18.25
2022-07-25T05:48:15.752Z,18.21
2022-07-25T05:50:42.879Z,18.05
2022-07-25T05:53:10.091Z,17.93
2022-07-25T05:55:40.247Z,17.73
2022-07-25T05:58:09.621Z,17.62
2022-07-25T06:00:38.118Z,17.53
2022-07-25T06:03:05.288Z,17.43
2022-07-25T06:05:32.623Z,17.43
2022-07-25T06:07:59.625Z,17.32
2022-07-25T06:10:26.618Z,17.26
2022-07-25T06:12:53.841Z,17.20
2022-07-25T06:15:22.518Z,17.11
2022-07-25T06:17:53.337Z,17.09
2022-07-25T06:20:20.630Z,17.05
2022-07-25T06:22:47.517Z,17.05
2022-07-25T06:25:15.180Z,17.07
2022-07-25T06:27:42.789Z,17.06
2022-07-25T06:30:19.664Z,17.04
2022-07-25T06:32:51.357Z,16.98
2022-07-25T06:35:18.948Z,17.02
2022-07-25T06:37:46.006Z,17.03
2022-07-25T06:40:13.511Z,17.04
2022-07-25T06:42:46.180Z,16.99
2022-07-25T06:45:14.452Z,17.04
2022-07-25T06:47:43.203Z,17.11
2022-07-25T06:50:14.783Z,17.08
2022-07-25T06:52:42.349Z,17.22
2022-07-25T06:55:11.184Z,17.22
2022-07-25T06:57:38.240Z,17.24
2022-07-25T07:00:10.205Z,17.27
2022-07-25T07:03:01.768Z,17.33
2022-07-25T07:05:33.511Z,17.38
2022-07-25T07:08:01.308Z,17.45
2022-07-25T07:10:28.857Z,17.50
2022-07-25T07:13:15.333Z,17.57
2022-07-25T07:15:50.266Z,17.56
2022-07-25T07:18:19.060Z,17.66
2022-07-25T07:20:47.513Z,17.67
2022-07-25T07:23:17.089Z,17.76
2022-07-25T07:25:47.278Z,17.85
2022-07-25T07:28:15.797Z,17.89
2022-07-25T07:33:30.129Z,17.85
2022-07-25T07:35:57.392Z,17.94
2022-07-25T07:38:25.258Z,17.92
2022-07-25T07:40:53.222Z,17.82
2022-07-25T07:43:20.651Z,17.84
2022-07-25T07:45:47.625Z,17.96
2022-07-25T07:48:14.658Z,18.00
2022-07-25T07:50:41.600Z,18.08
2022-07-25T07:53:08.577Z,18.06
2022-07-25T07:55:44.286Z,18.09
2022-07-25T07:58:16.986Z,18.11
2022-07-25T08:00:47.520Z,18.16
2022-07-25T08:03:20.523Z,18.19
2022-07-25T08:05:49.145Z,18.12
2022-07-25T08:08:17.020Z,18.15
2022-07-25T08:10:47.954Z,18.17
2022-07-25T08:13:28.430Z,18.34
2022-07-25T08:16:00.201Z,18.39
2022-07-25T08:18:30.184Z,18.47
2022-07-25T08:20:57.705Z,18.45
2022-07-25T08:23:25.863Z,18.60
2022-07-25T08:25:52.811Z,18.81
2022-07-25T08:28:20.399Z,19.08
2022-07-25T08:30:47.555Z,19.24
2022-07-25T08:33:18.526Z,19.32
2022-07-25T08:35:49.361Z,19.59
2022-07-25T08:38:16.657Z,19.60
2022-07-25T08:40:43.609Z,19.57
2022-07-25T08:43:16.068Z,19.64
2022-07-25T08:45:47.827Z,19.86
2022-07-25T08:48:18.842Z,20.16
2022-07-25T08:50:47.276Z,20.38
2022-07-25T08:53:32.666Z,20.43
2022-07-25T08:56:00.608Z,20.46
2022-07-25T08:58:27.552Z,20.60
2022-07-25T09:00:54.404Z,20.86
2022-07-25T09:03:21.891Z,21.21
2022-07-25T09:05:48.863Z,21.44
2022-07-25T09:08:20.611Z,21.46
2022-07-25T09:10:53.258Z,21.38
2022-07-25T09:13:22.745Z,21.34
2022-07-25T09:15:57.018Z,21.30
2022-07-25T09:18:27.573Z,21.11
2022-07-25T09:21:01.683Z,20.85
2022-07-25T09:23:38.157Z,20.81
2022-07-25T09:26:15.378Z,20.68
2022-07-25T09:28:48.304Z,20.62
2022-07-25T09:31:17.585Z,20.63
2022-07-25T09:34:01.787Z,20.64
2022-07-25T09:36:28.621Z,20.58
2022-07-25T09:39:02.893Z,20.54
2022-07-25T09:41:41.319Z,20.32
2022-07-25T09:44:30.381Z,20.34
2022-07-25T09:46:59.230Z,20.42
2022-07-25T09:49:27.039Z,20.39
2022-07-25T09:51:55.277Z,20.35
2022-07-25T09:54:24.215Z,20.24
2022-07-25T09:56:52.416Z,20.19
2022-07-25T09:59:21.787Z,20.18
2022-07-25T10:02:17.918Z,20.17
2022-07-25T10:05:08.294Z,20.31
2022-07-25T10:07:39.124Z,20.28
2022-07-25T10:10:07.101Z,20.39
2022-07-25T10:12:35.017Z,20.55
2022-07-25T10:15:13.988Z,20.54
2022-07-25T10:17:42.122Z,20.62
2022-07-25T10:20:11.246Z,20.56
2022-07-25T10:22:57.597Z,20.63
2022-07-25T10:25:25.131Z,20.47
2022-07-25T10:28:03.109Z,20.45
2022-07-25T10:30:39.593Z,20.37
2022-07-25T10:33:18.922Z,20.45
2022-07-25T10:35:46.492Z,20.69
2022-07-25T10:38:13.694Z,20.80
2022-07-25T10:40:46.748Z,20.86
2022-07-25T10:43:22.018Z,20.80
2022-07-25T10:45:57.220Z,20.75
2022-07-25T10:48:30.844Z,20.75
2022-07-25T10:51:08.385Z,20.75
2022-07-25T10:53:47.106Z,20.75
2022-07-25T10:56:27.177Z,20.82
2022-07-25T10:59:02.165Z,20.90
2022-07-25T11:01:36.741Z,20.94
2022-07-25T11:04:15.949Z,20.99
2022-07-25T11:06:43.665Z,20.95
2022-07-25T11:09:22.702Z,20.86
2022-07-25T11:11:57.399Z,20.70
2022-07-25T11:14:41.909Z,20.32
2022-07-25T11:17:15.823Z,20.11
2022-07-25T11:19:45.288Z,19.85
2022-07-25T11:22:12.389Z,19.91
2022-07-25T11:24:47.369Z,19.97
2022-07-25T11:27:40.755Z,20.00
2022-07-25T11:30:17.688Z,20.12
2022-07-25T11:32:50.006Z,20.34
2022-07-25T11:35:26.916Z,20.37
2022-07-25T11:37:55.453Z,20.35
2022-07-25T11:42:53.114Z,20.18
2022-07-25T11:45:40.108Z,20.06
2022-07-25T11:48:13.552Z,20.13
2022-07-25T11:50:45.425Z,20.31
2022-07-25T11:53:14.926Z,20.41
2022-07-25T11:55:43.919Z,20.46
2022-07-25T11:58:15.497Z,20.63
2022-07-25T12:00:47.229Z,20.64
2022-07-25T12:03:20.474Z,20.51
2022-07-25T12:05:49.914Z,20.57
2022-07-25T12:08:20.874Z,20.58
2022-07-25T12:10:49.374Z,20.63
2022-07-25T12:13:24.617Z,20.73
2022-07-25T12:15:51.467Z,20.98
2022-07-25T12:18:18.604Z,21.00
2022-07-25T12:20:45.499Z,21.15
2022-07-25T12:23:14.567Z,21.19
2022-07-25T12:25:45.318Z,21.25
2022-07-25T12:28:13.124Z,21.38
2022-07-25T12:30:42.759Z,21.29
2022-07-25T12:33:10.125Z,21.48
2022-07-25T12:35:37.659Z,21.54
2022-07-25T12:38:05.295Z,21.50
2022-07-25T12:40:33.314Z,21.51
2022-07-25T12:43:00.559Z,21.47
2022-07-25T12:45:28.275Z,21.43
2022-07-25T12:47:55.974Z,21.27
2022-07-25T12:50:25.992Z,21.35
2022-07-25T12:52:53.797Z,20.95
2022-07-25T12:55:21.783Z,20.94
2022-07-25T12:57:50.245Z,20.79
2022-07-25T13:00:21.850Z,20.77
2022-07-25T13:02:52.210Z,20.79
2022-07-25T13:05:20.641Z,20.97
2022-07-25T13:07:49.337Z,21.14
2022-07-25T13:10:17.650Z,21.23
2022-07-25T13:12:45.017Z,21.19
2022-07-25T13:15:11.960Z,21.05
2022-07-25T13:17:40.572Z,20.77
2022-07-25T13:20:08.811Z,20.53
2022-07-25T13:22:35.773Z,20.28
2022-07-25T13:25:02.696Z,20.21
2022-07-25T13:27:29.516Z,20.18
2022-07-25T13:29:58.127Z,20.23
2022-07-25T13:32:26.834Z,20.21
2022-07-25T13:34:53.690Z,20.13
2022-07-25T13:37:20.813Z,20.24
2022-07-25T13:39:47.733Z,20.03
2022-07-25T13:42:14.592Z,20.15
2022-07-25T13:44:41.466Z,20.12
2022-07-25T13:47:08.818Z,20.02
2022-07-25T13:49:37.141Z,19.93
2022-07-25T13:52:04.678Z,19.95
2022-07-25T13:54:31.857Z,19.90
2022-07-25T13:56:59.212Z,19.88
2022-07-25T13:59:26.070Z,20.02
2022-07-25T14:01:52.982Z,19.97
2022-07-25T14:04:20.198Z,20.10
2022-07-25T14:06:52.249Z,20.30
2022-07-25T14:09:20.956Z,20.58
2022-07-25T14:11:48.273Z,20.81
2022-07-25T14:14:15.459Z,20.78
2022-07-25T14:16:42.368Z,20.76
2022-07-25T14:19:10.379Z,20.63
2022-07-25T14:21:38.099Z,20.49
2022-07-25T14:24:05.676Z,20.37
2022-07-25T14:26:35.048Z,20.17
2022-07-25T14:29:02.562Z,19.84
2022-07-25T14:31:29.736Z,19.70
2022-07-25T14:33:56.932Z,19.50
2022-07-25T14:36:24.181Z,19.39
2022-07-25T14:38:51.122Z,19.45
2022-07-25T14:41:19.746Z,19.39
2022-07-25T14:43:46.597Z,19.43
2022-07-25T14:46:14.059Z,19.44
2022-07-25T14:48:41.621Z,19.57
2022-07-25T14:51:08.702Z,19.68
2022-07-25T14:53:36.278Z,19.71
2022-07-25T14:56:05.735Z,19.79
2022-07-25T14:58:33.760Z,19.86
2022-07-25T15:01:00.994Z,19.91
2022-07-25T15:03:27.992Z,19.96
2022-07-25T15:05:54.868Z,19.80
2022-07-25T15:08:22.385Z,19.97
2022-07-25T15:10:49.415Z,20.12
2022-07-25T15:13:32.589Z,20.28
2022-07-25T15:16:01.105Z,20.45
2022-07-25T15:18:28.799Z,20.29
2022-07-25T15:20:55.727Z,20.30
2022-07-25T15:23:25.839Z,20.21
2022-07-25T15:26:01.767Z,20.05
2022-07-25T15:28:32.681Z,19.82
2022-07-25T15:30:59.607Z,19.66
2022-07-25T15:33:26.596Z,19.51
2022-07-25T15:35:53.580Z,19.35
2022-07-25T15:38:20.726Z,19.32
2022-07-25T15:40:48.212Z,19.17
2022-07-25T15:43:15.117Z,18.99
2022-07-25T15:45:46.037Z,19.18
2022-07-25T15:48:15.133Z,19.19
2022-07-25T15:50:48.573Z,19.08
2022-07-25T15:53:16.000Z,19.12
2022-07-25T15:55:43.576Z,19.25
2022-07-25T15:58:11.668Z,19.22
2022-07-25T16:00:39.960Z,19.08
2022-07-25T16:03:07.823Z,19.11
2022-07-25T16:05:35.653Z,19.10
2022-07-25T16:08:03.599Z,19.14
2022-07-25T16:10:32.880Z,18.94
2022-07-25T16:13:00.357Z,18.98
2022-07-25T16:15:28.556Z,18.89
2022-07-25T16:18:01.883Z,19.04
2022-07-25T16:20:30.136Z,19.08
2022-07-25T16:22:59.301Z,18.99
2022-07-25T16:25:28.243Z,18.92
2022-07-25T16:27:55.690Z,18.91
2022-07-25T16:30:23.025Z,19.03
2022-07-25T16:32:49.920Z,18.94
2022-07-25T16:35:17.114Z,19.00
2022-07-25T16:37:44.464Z,19.10
2022-07-25T16:40:12.688Z,19.04
2022-07-25T16:42:39.917Z,19.12
2022-07-25T16:45:07.970Z,19.04
2022-07-25T16:47:35.199Z,19.13
2022-07-25T16:50:02.344Z,19.05
2022-07-25T16:52:29.181Z,19.14
2022-07-25T16:54:56.028Z,19.05
2022-07-25T16:57:24.729Z,18.93
2022-07-25T16:59:53.698Z,18.84
2022-07-25T17:02:28.904Z,18.86
2022-07-25T17:04:57.507Z,18.83
2022-07-25T17:07:25.183Z,18.83
2022-07-25T17:09:52.408Z,18.85
2022-07-25T17:12:20.283Z,18.80
2022-07-25T17:14:48.119Z,18.89
2022-07-25T17:17:14.941Z,18.92
2022-07-25T17:19:42.384Z,18.99
2022-07-25T17:22:10.720Z,19.04
2022-07-25T17:24:39.521Z,19.04
2022-07-25T17:27:08.448Z,19.04
2022-07-25T17:29:36.206Z,19.01
2022-07-25T17:32:07.321Z,19.12
2022-07-25T17:34:34.723Z,18.91
2022-07-25T17:37:03.190Z,18.78
2022-07-25T17:39:34.482Z,18.50
2022-07-25T17:42:02.224Z,18.20
2022-07-25T17:44:29.159Z,18.00
2022-07-25T17:46:56.074Z,17.70
2022-07-25T17:49:23.017Z,17.31
2022-07-25T17:51:50.299Z,17.00
2022-07-25T17:54:17.745Z,16.90
2022-07-25T17:56:45.588Z,16.90
2022-07-25T17:59:13.241Z,16.91
2022-07-25T18:01:40.259Z,17.00
2022-07-25T18:04:07.707Z,17.05
2022-07-25T18:06:34.988Z,17.09
2022-07-25T18:09:02.237Z,17.09
2022-07-25T18:11:29.115Z,17.19
2022-07-25T18:13:56.015Z,17.31
2022-07-25T18:16:23.223Z,17.33
2022-07-25T18:18:50.133Z,17.22
2022-07-25T18:21:17.306Z,17.23
2022-07-25T18:23:44.116Z,17.18
2022-07-25T18:26:11.097Z,17.06
2022-07-25T18:28:38.367Z,17.03
2022-07-25T18:31:05.875Z,17.04
2022-07-25T18:33:33.045Z,17.06
2022-07-25T18:36:04.098Z,17.10
2022-07-25T18:38:34.392Z,17.16
2022-07-25T18:41:27.479Z,17.12
2022-07-25T18:43:50.254Z,17.09
2022-07-25T18:46:18.201Z,17.29
2022-07-25T18:48:46.245Z,17.28
2022-07-25T18:51:13.490Z,17.24
2022-07-25T18:53:42.825Z,17.25
2022-07-25T18:56:13.337Z,17.08
2022-07-25T18:58:40.944Z,17.18
2022-07-25T19:01:09.463Z,17.27
2022-07-25T19:03:37.752Z,17.24
2022-07-25T19:06:05.565Z,17.27
2022-07-25T19:08:33.060Z,17.18
2022-07-25T19:11:00.117Z,17.16
2022-07-25T19:13:48.205Z,17.07
2022-07-25T19:16:15.691Z,17.02
2022-07-25T19:18:43.006Z,17.00
2022-07-25T19:21:10.613Z,16.88
2022-07-25T19:23:37.658Z,16.82
2022-07-25T19:26:04.608Z,16.75
2022-07-25T19:28:31.583Z,16.78
2022-07-25T19:31:01.689Z,16.71
2022-07-25T19:33:34.830Z,16.76
2022-07-25T19:36:04.506Z,16.64
2022-07-25T19:38:31.452Z,16.62
2022-07-25T19:40:58.432Z,16.62
2022-07-25T19:43:25.626Z,16.57
2022-07-25T19:45:52.506Z,16.58
2022-07-25T19:48:23.815Z,16.57
2022-07-25T19:50:51.986Z,16.53
2022-07-25T19:53:19.153Z,16.54
2022-07-25T19:55:46.064Z,16.50
2022-07-25T19:58:12.888Z,16.41
2022-07-25T20:00:40.133Z,16.48
2022-07-25T20:03:07.281Z,16.33
2022-07-25T20:05:34.766Z,16.32
2022-07-25T20:08:01.815Z,16.26
2022-07-25T20:10:28.828Z,16.32
2022-07-25T20:12:59.566Z,16.18
2022-07-25T20:15:28.586Z,16.25
2022-07-25T20:17:56.930Z,16.20
2022-07-25T20:20:24.875Z,16.14
2022-07-25T20:22:52.108Z,16.17
2022-07-25T20:25:20.021Z,16.12
2022-07-25T20:27:49.854Z,16.11
2022-07-25T20:30:18.063Z,16.05
2022-07-25T20:32:45.237Z,16.04
2022-07-25T20:35:12.407Z,16.07
2022-07-25T20:37:39.489Z,16.08
2022-07-25T20:40:08.742Z,16.03
2022-07-25T20:42:37.989Z,16.02
2022-07-25T20:45:06.743Z,16.00
2022-07-25T20:47:34.611Z,16.00
2022-07-25T20:50:01.985Z,16.04
2022-07-25T20:52:30.419Z,16.11
2022-07-25T20:54:57.387Z,16.09
2022-07-25T20:57:24.386Z,16.05
2022-07-25T20:59:51.423Z,15.95
2022-07-25T21:02:18.822Z,16.02
2022-07-25T21:04:48.539Z,15.93
2022-07-25T21:07:16.925Z,15.87
2022-07-25T21:09:44.684Z,15.82
2022-07-25T21:12:11.615Z,15.86
2022-07-25T21:14:38.600Z,15.67
2022-07-25T21:17:06.914Z,15.66
2022-07-25T21:19:33.937Z,15.60
2022-07-25T21:22:02.180Z,15.50
2022-07-25T21:24:29.086Z,15.51
2022-07-25T21:26:55.919Z,15.50
2022-07-25T21:29:22.794Z,15.48
2022-07-25T21:31:50.039Z,15.28
2022-07-25T21:34:16.958Z,15.30
2022-07-25T21:36:43.814Z,15.36
2022-07-25T21:39:10.919Z,15.32
2022-07-25T21:41:38.024Z,15.33
2022-07-25T21:44:05.915Z,15.37
2022-07-25T21:46:32.927Z,15.31
2022-07-25T21:49:18.421Z,15.28
2022-07-25T21:52:05.830Z,15.28
2022-07-25T21:54:33.325Z,15.15
2022-07-25T21:57:00.177Z,15.24
2022-07-25T21:59:27.218Z,15.08
2022-07-25T22:01:54.089Z,15.09
2022-07-25T22:04:21.613Z,15.14
2022-07-25T22:06:48.600Z,15.04
2022-07-25T22:09:15.466Z,15.06
2022-07-25T22:11:46.434Z,15.08
2022-07-25T22:14:14.499Z,15.02
2022-07-25T22:16:42.173Z,14.92
2022-07-25T22:19:09.544Z,15.01
2022-07-25T22:21:36.831Z,14.97
2022-07-25T22:24:03.801Z,14.88
2022-07-25T22:26:30.624Z,14.98
2022-07-25T22:28:57.538Z,14.93
2022-07-25T22:31:24.446Z,15.01
2022-07-25T22:33:51.646Z,14.90
2022-07-25T22:36:18.699Z,14.91
2022-07-25T22:38:46.019Z,14.94
2022-07-25T22:41:13.147Z,14.97
2022-07-25T22:43:57.590Z,14.89
2022-07-25T22:46:28.577Z,14.90
2022-07-25T22:48:56.721Z,14.96
2022-07-25T22:51:24.286Z,14.91
2022-07-25T22:53:51.524Z,14.94
2022-07-25T22:56:18.957Z,14.88
2022-07-25T22:58:48.698Z,14.89
2022-07-25T23:01:17.903Z,14.88
2022-07-25T23:03:45.716Z,14.92
2022-07-25T23:06:13.296Z,14.92
2022-07-25T23:08:40.080Z,14.96
2022-07-25T23:11:07.004Z,14.99
2022-07-25T23:13:35.441Z,14.95
2022-07-25T23:16:03.413Z,15.02
2022-07-25T23:18:31.422Z,15.01
2022-07-25T23:20:58.495Z,15.01
2022-07-25T23:23:25.823Z,15.04
2022-07-25T23:25:52.860Z,15.01
2022-07-25T23:28:19.741Z,15.01
2022-07-25T23:30:47.204Z,14.97
2022-07-25T23:33:14.042Z,14.99
2022-07-25T23:35:42.415Z,14.95
2022-07-25T23:38:10.956Z,14.89
2022-07-25T23:40:37.996Z,14.87
2022-07-25T23:43:05.173Z,14.94
2022-07-25T23:45:32.584Z,14.90
2022-07-25T23:47:59.793Z,14.88
2022-07-25T23:50:26.897Z,14.87
2022-07-25T23:52:53.900Z,14.87
2022-07-25T23:55:20.822Z,14.85
2022-07-25T23:57:47.655Z,14.79
